createdAt,value
2018-05-03T00:01:41.311Z,7.60
2018-05-03T00:04:09.740Z,7.53
2018-05-03T00:06:38.279Z,8.27
2018-05-03T00:09:06.511Z,7.13
2018-05-03T00:11:34.997Z,8.37
2018-05-03T00:14:03.517Z,8.10
2018-05-03T00:16:32.022Z,8.00
2018-05-03T00:19:00.154Z,10.83
2018-05-03T00:21:28.622Z,8.73
2018-05-03T00:23:57.082Z,7.93
2018-05-03T00:26:25.599Z,6.90
2018-05-03T00:28:54.881Z,6.70
2018-05-03T00:31:23.345Z,13.00
2018-05-03T00:33:51.990Z,6.63
2018-05-03T00:36:20.402Z,6.43
2018-05-03T00:38:48.795Z,10.20
2018-05-03T00:41:17.458Z,6.13
2018-05-03T00:43:45.922Z,5.97
2018-05-03T00:46:14.337Z,8.30
2018-05-03T00:48:43.108Z,6.70
2018-05-03T00:51:11.591Z,6.47
2018-05-03T00:53:40.075Z,8.90
2018-05-03T00:56:08.707Z,7.03
2018-05-03T00:58:37.202Z,8.93
2018-05-03T01:01:05.590Z,8.27
2018-05-03T01:03:34.088Z,7.60
2018-05-03T01:06:02.555Z,9.23
2018-05-03T01:08:31.176Z,8.77
2018-05-03T01:10:59.683Z,8.33
2018-05-03T01:13:28.168Z,7.07
2018-05-03T01:15:56.589Z,7.47
2018-05-03T01:18:25.071Z,6.63
2018-05-03T01:20:53.550Z,7.60
2018-05-03T01:23:25.753Z,11.27
2018-05-03T01:25:54.190Z,6.87
2018-05-03T01:28:22.655Z,7.63
2018-05-03T01:30:51.113Z,7.03
2018-05-03T01:33:19.569Z,7.93
2018-05-03T01:35:58.882Z,8.30
2018-05-03T01:38:27.369Z,8.50
2018-05-03T01:40:55.772Z,8.60
2018-05-03T01:43:24.282Z,7.47
2018-05-03T01:45:52.808Z,11.23
2018-05-03T01:48:21.375Z,6.00
2018-05-03T01:50:50.673Z,10.83
2018-05-03T01:53:19.147Z,8.00
2018-05-03T01:55:47.622Z,7.10
2018-05-03T01:58:16.105Z,8.47
2018-05-03T02:00:45.293Z,9.53
2018-05-03T02:03:13.719Z,8.63
2018-05-03T02:05:42.206Z,9.10
2018-05-03T02:08:10.690Z,13.60
2018-05-03T02:10:39.993Z,10.40
2018-05-03T02:13:09.294Z,9.07
2018-05-03T02:15:37.763Z,9.83
2018-05-03T02:18:05.829Z,9.00
2018-05-03T02:20:33.662Z,9.33
2018-05-03T02:23:02.830Z,14.00
2018-05-03T02:25:31.291Z,8.17
2018-05-03T02:27:59.835Z,9.80
2018-05-03T02:30:28.300Z,12.13
2018-05-03T02:32:56.828Z,10.97
2018-05-03T02:35:25.345Z,10.47
2018-05-03T02:37:54.566Z,8.97
2018-05-03T02:40:22.974Z,9.30
2018-05-03T02:42:51.385Z,9.70
2018-05-03T02:45:19.781Z,10.97
2018-05-03T02:47:48.249Z,13.63
2018-05-03T02:50:16.621Z,11.20
2018-05-03T02:52:45.882Z,12.97
2018-05-03T02:55:14.327Z,14.97
2018-05-03T02:58:13.216Z,14.17
2018-05-03T03:00:58.125Z,18.80
2018-05-03T03:03:43.725Z,15.07
2018-05-03T03:06:28.713Z,16.53
2018-05-03T03:12:35.090Z,15.87
2018-05-03T03:15:20.429Z,17.20
2018-05-03T03:18:05.655Z,17.50
2018-05-03T03:21:00.577Z,17.30
2018-05-03T03:23:45.646Z,18.73
2018-05-03T03:30:07.385Z,19.27
2018-05-03T03:32:47.744Z,20.10
2018-05-03T03:38:27.410Z,20.60
2018-05-03T03:41:07.361Z,27.53
2018-05-03T03:43:47.000Z,24.93
2018-05-03T03:46:15.454Z,24.83
2018-05-03T03:48:44.401Z,20.30
2018-05-03T03:51:12.873Z,27.00
2018-05-03T03:53:42.457Z,25.80
2018-05-03T03:56:10.854Z,28.53
2018-05-03T03:58:39.319Z,25.43
2018-05-03T04:01:11.009Z,27.33
2018-05-03T04:03:39.632Z,27.30
2018-05-03T04:06:08.182Z,23.80
2018-05-03T04:08:36.624Z,25.67
2018-05-03T04:11:05.097Z,26.43
2018-05-03T04:13:33.510Z,31.70
2018-05-03T04:16:02.711Z,27.90
2018-05-03T04:18:43.087Z,24.07
2018-05-03T04:24:20.535Z,28.43
2018-05-03T04:26:51.303Z,25.70
2018-05-03T04:29:19.707Z,27.13
2018-05-03T04:31:51.929Z,21.50
2018-05-03T04:34:20.598Z,22.50
2018-05-03T04:36:49.071Z,23.77
2018-05-03T04:41:58.599Z,25.43
2018-05-03T04:44:27.476Z,21.67
2018-05-03T04:46:55.983Z,23.53
2018-05-03T04:49:26.173Z,25.90
2018-05-03T04:51:54.703Z,20.50
2018-05-03T04:54:29.412Z,19.17
2018-05-03T04:56:57.892Z,22.93
2018-05-03T04:59:27.101Z,20.23
2018-05-03T05:01:55.517Z,26.20
2018-05-03T05:04:23.987Z,21.87
2018-05-03T05:06:53.463Z,21.73
2018-05-03T05:09:22.201Z,24.47
2018-05-03T05:11:50.668Z,20.40
2018-05-03T05:14:19.123Z,21.93
2018-05-03T05:16:47.617Z,21.53
2018-05-03T05:19:16.101Z,22.57
2018-05-03T05:21:44.969Z,19.60
2018-05-03T05:24:13.530Z,22.20
2018-05-03T05:26:42.166Z,21.30
2018-05-03T05:29:10.642Z,19.03
2018-05-03T05:34:36.755Z,28.80
2018-05-03T05:37:05.252Z,19.00
2018-05-03T05:42:21.171Z,24.27
2018-05-03T05:44:49.699Z,28.40
2018-05-03T05:47:18.123Z,20.00
2018-05-03T05:49:56.961Z,22.53
2018-05-03T05:52:25.442Z,22.53
2018-05-03T05:54:54.120Z,15.17
2018-05-03T06:00:16.932Z,13.87
2018-05-03T06:02:45.373Z,14.13
2018-05-03T06:05:13.808Z,14.53
2018-05-03T06:07:42.231Z,13.80
2018-05-03T06:10:10.653Z,13.07
2018-05-03T06:12:39.841Z,18.00
2018-05-03T06:15:08.301Z,25.67
2018-05-03T06:17:37.589Z,32.50
2018-05-03T06:20:06.157Z,15.13
2018-05-03T06:22:35.389Z,23.80
2018-05-03T06:25:04.478Z,16.37
2018-05-03T06:27:32.941Z,20.40
2018-05-03T06:30:04.339Z,18.47
2018-05-03T06:32:32.837Z,22.00
2018-05-03T06:35:01.330Z,13.80
2018-05-03T06:37:30.229Z,14.87
2018-05-03T06:39:58.839Z,22.03
2018-05-03T06:42:27.309Z,15.30
2018-05-03T06:44:56.330Z,11.50
2018-05-03T06:50:29.049Z,11.70
2018-05-03T06:52:57.530Z,9.60
2018-05-03T06:55:26.044Z,21.70
2018-05-03T06:57:54.547Z,9.27
2018-05-03T07:06:31.562Z,14.07
2018-05-03T07:09:08.338Z,31.57
2018-05-03T07:11:43.865Z,10.43
2018-05-03T07:16:46.901Z,12.37
2018-05-03T07:19:15.409Z,7.70
2018-05-03T07:21:43.816Z,11.87
2018-05-03T07:24:12.977Z,8.90
2018-05-03T07:26:42.949Z,11.10
2018-05-03T07:29:11.365Z,6.40
2018-05-03T07:34:42.897Z,8.90
2018-05-03T07:37:11.553Z,10.60
2018-05-03T07:39:39.962Z,8.70
2018-05-03T07:42:14.962Z,12.30
2018-05-03T07:44:43.682Z,11.03
2018-05-03T07:47:12.334Z,7.53
2018-05-03T07:52:43.878Z,5.73
2018-05-03T07:55:14.107Z,14.53
2018-05-03T07:57:52.292Z,6.00
2018-05-03T08:00:21.768Z,8.40
2018-05-03T08:05:52.983Z,13.07
2018-05-03T08:08:21.407Z,5.60
2018-05-03T08:10:50.682Z,6.77
2018-05-03T08:13:19.154Z,10.83
2018-05-03T08:15:47.706Z,7.60
2018-05-03T08:18:16.880Z,12.87
2018-05-03T08:20:45.359Z,7.83
2018-05-03T08:23:13.852Z,6.37
2018-05-03T08:25:42.313Z,13.00
2018-05-03T08:28:10.843Z,8.33
2018-05-03T08:31:03.809Z,7.53
2018-05-03T08:33:32.283Z,9.57
2018-05-03T08:39:02.918Z,13.90
2018-05-03T08:44:34.979Z,14.87
2018-05-03T08:47:03.425Z,10.67
2018-05-03T08:49:32.043Z,9.47
2018-05-03T08:52:00.497Z,8.23
2018-05-03T09:00:53.340Z,6.97
2018-05-03T09:03:21.775Z,8.47
2018-05-03T09:05:50.266Z,8.93
2018-05-03T09:08:18.957Z,12.10
2018-05-03T09:10:48.311Z,36.43
2018-05-03T09:13:17.786Z,24.47
2018-05-03T09:18:31.986Z,8.00
2018-05-03T09:21:01.250Z,10.00
2018-05-03T09:23:30.113Z,7.00
2018-05-03T09:28:51.636Z,13.07
2018-05-03T09:31:20.082Z,12.10
2018-05-03T09:33:48.551Z,8.50
2018-05-03T09:36:33.392Z,8.73
2018-05-03T09:39:02.106Z,7.70
2018-05-03T09:41:31.358Z,8.70
2018-05-03T09:44:15.987Z,10.50
2018-05-03T09:46:44.398Z,8.83
2018-05-03T09:49:13.699Z,10.07
2018-05-03T09:51:42.978Z,8.23
2018-05-03T09:54:11.730Z,11.80
2018-05-03T09:56:56.958Z,5.13
2018-05-03T09:59:25.645Z,7.37
2018-05-03T10:01:54.229Z,6.23
2018-05-03T10:04:22.898Z,9.43
2018-05-03T10:06:51.315Z,9.20
2018-05-03T10:09:19.812Z,8.03
2018-05-03T10:11:48.328Z,8.33
2018-05-03T10:14:16.743Z,12.63
2018-05-03T10:16:45.252Z,12.23
2018-05-03T10:19:17.267Z,9.50
2018-05-03T10:21:46.451Z,9.70
2018-05-03T10:27:14.173Z,9.37
2018-05-03T10:29:42.675Z,9.53
2018-05-03T10:32:11.162Z,13.77
2018-05-03T10:37:44.870Z,12.80
2018-05-03T10:40:29.999Z,6.20
2018-05-03T10:42:59.242Z,8.20
2018-05-03T10:45:27.639Z,6.87
2018-05-03T10:50:59.038Z,9.10
2018-05-03T10:56:30.934Z,5.63
2018-05-03T10:58:59.495Z,9.77
2018-05-03T11:07:34.095Z,6.77
2018-05-03T11:10:02.501Z,11.07
2018-05-03T11:12:30.979Z,6.03
2018-05-03T11:14:59.571Z,6.80
2018-05-03T11:17:28.075Z,9.97
2018-05-03T11:19:56.596Z,7.57
2018-05-03T11:22:27.607Z,9.30
2018-05-03T11:24:56.105Z,12.90
2018-05-03T11:30:28.146Z,9.97
2018-05-03T11:36:03.990Z,5.87
2018-05-03T11:41:22.092Z,7.50
2018-05-03T11:43:52.571Z,7.00
2018-05-03T11:49:23.842Z,7.43
2018-05-03T11:51:52.470Z,6.90
2018-05-03T11:54:21.871Z,7.40
2018-05-03T11:56:50.438Z,8.93
2018-05-03T11:59:20.061Z,7.43
2018-05-03T12:01:53.885Z,8.10
2018-05-03T12:04:22.711Z,5.20
2018-05-03T12:06:54.103Z,7.60
2018-05-03T12:09:22.563Z,6.60
2018-05-03T12:11:51.270Z,6.50
2018-05-03T12:20:26.398Z,7.27
2018-05-03T12:25:57.691Z,5.73
2018-05-03T12:28:26.998Z,8.63
2018-05-03T12:30:55.455Z,8.67
2018-05-03T12:33:40.284Z,8.00
2018-05-03T12:39:01.728Z,9.93
2018-05-03T12:41:30.172Z,7.93
2018-05-03T12:50:10.738Z,10.07
2018-05-03T12:52:39.643Z,7.53
2018-05-03T13:01:19.344Z,14.33
2018-05-03T13:03:53.667Z,10.20
2018-05-03T13:06:22.161Z,8.77
2018-05-03T13:08:51.423Z,10.13
2018-05-03T13:11:19.893Z,7.60
2018-05-03T13:16:45.322Z,9.17
2018-05-03T13:19:14.599Z,8.53
2018-05-03T13:24:24.459Z,9.17
2018-05-03T13:26:54.008Z,7.90
2018-05-03T13:29:22.515Z,7.60
2018-05-03T13:34:28.360Z,11.13
2018-05-03T13:36:57.758Z,11.10
2018-05-03T13:39:31.768Z,9.37
2018-05-03T13:42:03.115Z,13.70
2018-05-03T13:44:31.546Z,8.47
2018-05-03T13:47:00.214Z,7.20
2018-05-03T13:49:28.699Z,12.17
2018-05-03T13:51:57.342Z,9.00
2018-05-03T13:54:25.986Z,9.03
2018-05-03T13:56:54.458Z,8.07
2018-05-03T13:59:23.266Z,8.03
2018-05-03T14:01:51.756Z,11.70
2018-05-03T14:04:20.793Z,13.30
2018-05-03T14:06:54.562Z,15.13
2018-05-03T14:09:23.099Z,12.63
2018-05-03T14:11:51.555Z,10.93
2018-05-03T14:14:20.068Z,9.33
2018-05-03T14:16:48.543Z,9.63
2018-05-03T14:22:35.800Z,10.67
2018-05-03T14:25:04.049Z,7.63
2018-05-03T14:27:32.490Z,9.23
2018-05-03T14:30:00.951Z,9.00
2018-05-03T14:32:30.177Z,6.80
2018-05-03T14:34:58.687Z,11.57
2018-05-03T14:37:29.056Z,10.30
2018-05-03T14:39:57.494Z,8.30
2018-05-03T14:42:26.722Z,11.47
2018-05-03T14:44:55.118Z,7.50
2018-05-03T14:47:31.647Z,8.23
2018-05-03T14:50:00.907Z,15.50
2018-05-03T14:52:29.375Z,11.03
2018-05-03T14:54:57.918Z,9.27
2018-05-03T14:57:26.426Z,8.90
2018-05-03T14:59:54.931Z,12.03
2018-05-03T15:02:23.396Z,10.23
2018-05-03T15:04:51.820Z,8.07
2018-05-03T15:07:22.284Z,8.43
2018-05-03T15:09:50.730Z,8.10
2018-05-03T15:12:19.436Z,8.80
2018-05-03T15:14:47.671Z,8.93
2018-05-03T15:17:16.160Z,7.40
2018-05-03T15:19:44.859Z,8.70
2018-05-03T15:25:11.409Z,9.80
2018-05-03T15:27:42.999Z,10.03
2018-05-03T15:30:17.547Z,9.30
2018-05-03T15:32:48.366Z,5.97
2018-05-03T15:35:16.637Z,6.03
2018-05-03T15:37:51.044Z,9.57
2018-05-03T15:40:36.715Z,11.10
2018-05-03T15:45:49.458Z,7.40
2018-05-03T15:48:47.765Z,11.17
2018-05-03T15:51:16.659Z,6.90
2018-05-03T15:53:56.475Z,7.60
2018-05-03T15:56:25.028Z,8.77
2018-05-03T15:58:53.458Z,7.07
2018-05-03T16:01:24.381Z,6.03
2018-05-03T16:03:58.246Z,12.43
2018-05-03T16:06:26.763Z,6.97
2018-05-03T16:09:07.324Z,10.07
2018-05-03T16:11:35.789Z,5.80
2018-05-03T16:14:05.594Z,8.53
2018-05-03T16:16:34.057Z,8.97
2018-05-03T16:19:03.365Z,8.73
2018-05-03T16:21:31.830Z,7.43
2018-05-03T16:24:00.275Z,9.67
2018-05-03T16:26:28.758Z,6.50
2018-05-03T16:28:57.333Z,9.10
2018-05-03T16:31:25.578Z,9.37
2018-05-03T16:33:54.056Z,8.97
2018-05-03T16:36:22.579Z,7.17
2018-05-03T16:38:50.958Z,7.07
2018-05-03T16:41:19.493Z,10.63
2018-05-03T16:43:47.975Z,7.80
2018-05-03T16:46:16.467Z,6.23
2018-05-03T16:48:56.295Z,7.83
2018-05-03T16:51:25.604Z,7.90
2018-05-03T16:53:54.026Z,9.07
2018-05-03T16:56:22.440Z,7.27
2018-05-03T16:58:51.122Z,7.93
2018-05-03T17:01:22.533Z,7.03
2018-05-03T17:03:51.002Z,6.60
2018-05-03T17:06:21.767Z,6.93
2018-05-03T17:08:50.200Z,9.20
2018-05-03T17:11:18.731Z,6.43
2018-05-03T17:13:47.142Z,7.83
2018-05-03T17:16:15.316Z,7.10
2018-05-03T17:18:45.044Z,7.27
2018-05-03T17:21:14.496Z,6.90
2018-05-03T17:23:47.397Z,6.83
2018-05-03T17:26:20.119Z,7.97
2018-05-03T17:28:48.663Z,11.27
2018-05-03T17:31:17.890Z,7.27
2018-05-03T17:33:46.364Z,5.33
2018-05-03T17:36:14.958Z,6.63
2018-05-03T17:38:43.503Z,6.10
2018-05-03T17:41:11.961Z,5.30
2018-05-03T17:43:40.464Z,7.57
2018-05-03T17:46:11.139Z,12.10
2018-05-03T17:48:39.691Z,7.50
2018-05-03T17:51:08.988Z,6.33
2018-05-03T17:53:37.432Z,8.53
2018-05-03T17:56:09.998Z,5.40
2018-05-03T17:58:40.471Z,13.80
2018-05-03T18:01:08.944Z,6.10
2018-05-03T18:03:38.178Z,10.77
2018-05-03T18:06:06.635Z,8.40
2018-05-03T18:08:36.020Z,8.87
2018-05-03T18:11:04.744Z,9.63
2018-05-03T18:13:33.162Z,5.90
2018-05-03T18:16:02.369Z,9.00
2018-05-03T18:18:32.898Z,5.00
2018-05-03T18:21:08.710Z,5.13
2018-05-03T18:23:37.113Z,7.90
2018-05-03T18:26:05.589Z,6.03
2018-05-03T18:28:34.206Z,10.33
2018-05-03T18:31:12.056Z,9.07
2018-05-03T18:33:40.518Z,9.90
2018-05-03T18:36:09.024Z,8.37
2018-05-03T18:41:41.926Z,8.43
2018-05-03T18:44:11.024Z,6.87
2018-05-03T18:46:44.160Z,8.47
2018-05-03T18:52:06.024Z,6.63
2018-05-03T18:54:34.466Z,7.87
2018-05-03T18:57:03.086Z,6.50
2018-05-03T18:59:35.279Z,9.30
2018-05-03T19:02:03.939Z,12.10
2018-05-03T19:04:33.427Z,8.50
2018-05-03T19:07:03.492Z,9.90
2018-05-03T19:09:34.643Z,10.57
2018-05-03T19:12:03.830Z,7.77
2018-05-03T19:14:32.351Z,12.27
2018-05-03T19:17:00.925Z,8.43
2018-05-03T19:19:29.400Z,14.20
2018-05-03T19:21:57.921Z,9.10
2018-05-03T19:27:26.964Z,9.00
2018-05-03T19:29:55.426Z,7.73
2018-05-03T19:32:23.896Z,6.47
2018-05-03T19:34:57.599Z,6.97
2018-05-03T19:40:08.719Z,15.07
2018-05-03T19:42:38.002Z,9.47
2018-05-03T19:45:06.533Z,8.80
2018-05-03T19:47:35.037Z,15.23
2018-05-03T19:50:26.054Z,14.00
2018-05-03T19:52:54.982Z,10.20
2018-05-03T19:55:28.880Z,10.73
2018-05-03T19:57:57.347Z,13.30
2018-05-03T20:03:39.618Z,11.33
2018-05-03T20:06:08.242Z,13.50
2018-05-03T20:08:36.638Z,15.73
2018-05-03T20:11:05.106Z,10.30
2018-05-03T20:13:37.606Z,8.57
2018-05-03T20:16:25.239Z,14.47
2018-05-03T20:18:53.722Z,9.63
2018-05-03T20:21:23.121Z,8.60
2018-05-03T20:23:56.858Z,14.73
2018-05-03T20:26:28.084Z,8.27
2018-05-03T20:28:59.166Z,13.30
2018-05-03T20:31:27.674Z,11.67
2018-05-03T20:34:06.649Z,9.73
2018-05-03T20:36:35.112Z,9.30
2018-05-03T20:39:03.075Z,10.00
2018-05-03T20:44:38.617Z,10.60
2018-05-03T20:47:07.107Z,8.00
2018-05-03T20:49:35.563Z,7.13
2018-05-03T20:54:58.525Z,11.10
2018-05-03T20:57:27.000Z,11.33
2018-05-03T21:02:31.316Z,8.93
2018-05-03T21:05:00.609Z,12.57
2018-05-03T21:07:57.045Z,10.60
2018-05-03T21:10:25.299Z,6.30
2018-05-03T21:12:57.890Z,11.13
2018-05-03T21:15:26.321Z,12.57
2018-05-03T21:17:55.060Z,17.17
2018-05-03T21:20:23.470Z,10.47
2018-05-03T21:22:51.877Z,9.70
2018-05-03T21:25:20.282Z,10.20
2018-05-03T21:27:49.109Z,7.87
2018-05-03T21:30:17.574Z,9.03
2018-05-03T21:32:46.251Z,9.73
2018-05-03T21:35:27.423Z,10.17
2018-05-03T21:40:33.145Z,9.73
2018-05-03T21:43:01.449Z,8.17
2018-05-03T21:45:31.082Z,6.97
2018-05-03T21:47:59.501Z,10.63
2018-05-03T21:50:27.890Z,8.63
2018-05-03T21:52:59.902Z,14.70
2018-05-03T21:55:28.556Z,11.20
2018-05-03T21:57:57.280Z,10.90
2018-05-03T22:00:26.525Z,15.13
2018-05-03T22:02:54.998Z,11.77
2018-05-03T22:05:23.441Z,11.93
2018-05-03T22:07:51.898Z,11.93
2018-05-03T22:10:20.336Z,7.23
2018-05-03T22:13:05.162Z,9.90
2018-05-03T22:15:46.822Z,7.77
2018-05-03T22:18:26.186Z,9.60
2018-05-03T22:20:54.665Z,10.50
2018-05-03T22:23:23.081Z,12.40
2018-05-03T22:25:51.519Z,8.03
2018-05-03T22:28:20.849Z,7.57
2018-05-03T22:30:49.284Z,7.80
2018-05-03T22:33:18.451Z,8.53
2018-05-03T22:35:58.170Z,12.43
2018-05-03T22:38:27.626Z,10.90
2018-05-03T22:40:56.088Z,6.87
2018-05-03T22:43:24.558Z,7.47
2018-05-03T22:45:53.020Z,12.27
2018-05-03T22:48:21.492Z,8.90
2018-05-03T22:50:50.037Z,7.87
2018-05-03T22:53:18.505Z,9.47
2018-05-03T22:55:46.942Z,7.47
2018-05-03T22:58:28.350Z,10.00
2018-05-03T23:00:57.998Z,9.67
2018-05-03T23:06:07.646Z,7.70
2018-05-03T23:11:28.432Z,6.60
2018-05-03T23:16:33.231Z,9.10
2018-05-03T23:21:52.941Z,8.60
2018-05-03T23:24:21.066Z,11.20
2018-05-03T23:26:55.888Z,11.10
2018-05-03T23:29:24.283Z,8.77
2018-05-03T23:31:52.684Z,9.30
2018-05-03T23:34:21.942Z,7.70
2018-05-03T23:36:50.377Z,7.73
2018-05-03T23:39:28.419Z,6.47
2018-05-03T23:42:27.831Z,9.30
2018-05-03T23:44:57.034Z,6.47
2018-05-03T23:50:19.216Z,12.00
2018-05-03T23:52:53.087Z,7.50
2018-05-03T23:55:28.233Z,6.20
2018-05-03T23:57:56.694Z,6.43
